sensor_id;sensor_type;location;lat;lon;timestamp;P1;durP1;ratioP1;P2;durP2;ratioP2
34200;SDS011;20469;55.638;37.670;2022-11-15T00:01:09;4.05;;;1.40;;
34200;SDS011;20469;55.638;37.670;2022-11-15T00:03:40;1.63;;;1.10;;
34200;SDS011;20469;55.638;37.670;2022-11-15T00:06:08;1.23;;;1.00;;
34200;SDS011;20469;55.638;37.670;2022-11-15T00:08:36;1.80;;;1.05;;
34200;SDS011;20469;55.638;37.670;2022-11-15T00:11:04;3.05;;;1.48;;
34200;SDS011;20469;55.638;37.670;2022-11-15T00:13:31;3.65;;;1.10;;
34200;SDS011;20469;55.638;37.670;2022-11-15T00:16:00;1.85;;;1.25;;
34200;SDS011;20469;55.638;37.670;2022-11-15T00:18:28;4.10;;;1.52;;
34200;SDS011;20469;55.638;37.670;2022-11-15T00:21:02;3.60;;;1.23;;
34200;SDS011;20469;55.638;37.670;2022-11-15T00:23:32;2.65;;;1.20;;
34200;SDS011;20469;55.638;37.670;2022-11-15T00:26:00;4.40;;;1.33;;
34200;SDS011;20469;55.638;37.670;2022-11-15T00:28:28;2.55;;;1.20;;
34200;SDS011;20469;55.638;37.670;2022-11-15T00:31:00;2.83;;;1.35;;
34200;SDS011;20469;55.638;37.670;2022-11-15T00:33:28;3.70;;;1.25;;
34200;SDS011;20469;55.638;37.670;2022-11-15T00:36:00;4.28;;;1.25;;
34200;SDS011;20469;55.638;37.670;2022-11-15T00:38:31;1.42;;;1.10;;
34200;SDS011;20469;55.638;37.670;2022-11-15T00:40:59;2.67;;;1.10;;
34200;SDS011;20469;55.638;37.670;2022-11-15T00:43:34;4.60;;;1.25;;
34200;SDS011;20469;55.638;37.670;2022-11-15T00:46:02;2.72;;;1.23;;
34200;SDS011;20469;55.638;37.670;2022-11-15T00:48:30;3.20;;;1.00;;
34200;SDS011;20469;55.638;37.670;2022-11-15T00:50:58;1.83;;;1.10;;
34200;SDS011;20469;55.638;37.670;2022-11-15T00:53:26;4.47;;;1.20;;
34200;SDS011;20469;55.638;37.670;2022-11-15T00:55:54;2.20;;;1.08;;
34200;SDS011;20469;55.638;37.670;2022-11-15T00:58:22;2.88;;;1.20;;
34200;SDS011;20469;55.638;37.670;2022-11-15T01:00:49;4.30;;;1.30;;
34200;SDS011;20469;55.638;37.670;2022-11-15T01:03:17;3.05;;;1.20;;
34200;SDS011;20469;55.638;37.670;2022-11-15T01:05:45;3.38;;;1.10;;
34200;SDS011;20469;55.638;37.670;2022-11-15T01:08:16;4.25;;;1.35;;
34200;SDS011;20469;55.638;37.670;2022-11-15T01:10:45;3.47;;;1.23;;
34200;SDS011;20469;55.638;37.670;2022-11-15T01:13:13;4.82;;;1.15;;
34200;SDS011;20469;55.638;37.670;2022-11-15T01:15:41;3.72;;;1.50;;
34200;SDS011;20469;55.638;37.670;2022-11-15T01:18:09;2.97;;;1.42;;
34200;SDS011;20469;55.638;37.670;2022-11-15T01:20:44;2.67;;;1.13;;
34200;SDS011;20469;55.638;37.670;2022-11-15T01:23:11;4.22;;;1.38;;
34200;SDS011;20469;55.638;37.670;2022-11-15T01:25:39;5.43;;;1.30;;
34200;SDS011;20469;55.638;37.670;2022-11-15T01:28:07;3.53;;;1.42;;
34200;SDS011;20469;55.638;37.670;2022-11-15T01:30:35;2.55;;;1.45;;
34200;SDS011;20469;55.638;37.670;2022-11-15T01:33:03;5.32;;;1.65;;
34200;SDS011;20469;55.638;37.670;2022-11-15T01:35:31;3.05;;;1.30;;
34200;SDS011;20469;55.638;37.670;2022-11-15T01:37:58;5.78;;;1.30;;
34200;SDS011;20469;55.638;37.670;2022-11-15T01:40:26;3.80;;;1.40;;
34200;SDS011;20469;55.638;37.670;2022-11-15T01:42:53;4.30;;;1.40;;
34200;SDS011;20469;55.638;37.670;2022-11-15T01:45:21;3.85;;;1.27;;
34200;SDS011;20469;55.638;37.670;2022-11-15T01:47:50;3.38;;;1.20;;
34200;SDS011;20469;55.638;37.670;2022-11-15T01:50:22;3.13;;;1.10;;
34200;SDS011;20469;55.638;37.670;2022-11-15T01:52:54;4.15;;;1.27;;
34200;SDS011;20469;55.638;37.670;2022-11-15T01:55:23;4.50;;;1.55;;
34200;SDS011;20469;55.638;37.670;2022-11-15T01:57:54;6.18;;;1.25;;
34200;SDS011;20469;55.638;37.670;2022-11-15T02:00:26;7.03;;;1.45;;
34200;SDS011;20469;55.638;37.670;2022-11-15T02:02:54;4.20;;;1.33;;
34200;SDS011;20469;55.638;37.670;2022-11-15T02:05:22;4.93;;;1.30;;
34200;SDS011;20469;55.638;37.670;2022-11-15T02:07:53;3.67;;;1.38;;
34200;SDS011;20469;55.638;37.670;2022-11-15T02:10:22;5.65;;;1.67;;
34200;SDS011;20469;55.638;37.670;2022-11-15T02:12:50;2.88;;;1.33;;
34200;SDS011;20469;55.638;37.670;2022-11-15T02:15:20;3.35;;;1.15;;
34200;SDS011;20469;55.638;37.670;2022-11-15T02:20:41;5.53;;;1.25;;
34200;SDS011;20469;55.638;37.670;2022-11-15T02:23:31;5.78;;;1.63;;
34200;SDS011;20469;55.638;37.670;2022-11-15T02:32:11;4.07;;;1.42;;
34200;SDS011;20469;55.638;37.670;2022-11-15T02:35:01;3.50;;;1.45;;
34200;SDS011;20469;55.638;37.670;2022-11-15T02:40:30;7.00;;;1.45;;
34200;SDS011;20469;55.638;37.670;2022-11-15T02:43:09;3.65;;;1.25;;
34200;SDS011;20469;55.638;37.670;2022-11-15T02:45:58;4.50;;;1.60;;
34200;SDS011;20469;55.638;37.670;2022-11-15T02:48:32;7.30;;;2.20;;
34200;SDS011;20469;55.638;37.670;2022-11-15T02:51:01;5.68;;;1.65;;
34200;SDS011;20469;55.638;37.670;2022-11-15T02:53:29;4.95;;;1.58;;
34200;SDS011;20469;55.638;37.670;2022-11-15T02:55:57;3.33;;;1.23;;
34200;SDS011;20469;55.638;37.670;2022-11-15T02:58:36;6.20;;;1.30;;
34200;SDS011;20469;55.638;37.670;2022-11-15T03:01:26;3.55;;;1.40;;
34200;SDS011;20469;55.638;37.670;2022-11-15T03:04:09;4.50;;;1.25;;
34200;SDS011;20469;55.638;37.670;2022-11-15T03:07:00;6.20;;;1.35;;
34200;SDS011;20469;55.638;37.670;2022-11-15T03:15:10;3.30;;;1.30;;
34200;SDS011;20469;55.638;37.670;2022-11-15T03:17:48;3.75;;;1.35;;
34200;SDS011;20469;55.638;37.670;2022-11-15T03:20:21;2.92;;;1.08;;
34200;SDS011;20469;55.638;37.670;2022-11-15T03:22:51;10.20;;;2.10;;
34200;SDS011;20469;55.638;37.670;2022-11-15T03:25:22;3.67;;;1.20;;
34200;SDS011;20469;55.638;37.670;2022-11-15T03:27:54;2.15;;;1.05;;
34200;SDS011;20469;55.638;37.670;2022-11-15T03:30:25;3.40;;;1.33;;
34200;SDS011;20469;55.638;37.670;2022-11-15T03:32:54;3.50;;;1.15;;
34200;SDS011;20469;55.638;37.670;2022-11-15T03:35:25;2.13;;;1.45;;
34200;SDS011;20469;55.638;37.670;2022-11-15T03:38:05;3.83;;;1.35;;
34200;SDS011;20469;55.638;37.670;2022-11-15T03:40:49;4.25;;;1.35;;
34200;SDS011;20469;55.638;37.670;2022-11-15T03:43:33;6.18;;;1.30;;
34200;SDS011;20469;55.638;37.670;2022-11-15T03:46:11;3.85;;;1.30;;
34200;SDS011;20469;55.638;37.670;2022-11-15T03:48:44;3.60;;;1.60;;
34200;SDS011;20469;55.638;37.670;2022-11-15T03:51:16;5.07;;;1.45;;
34200;SDS011;20469;55.638;37.670;2022-11-15T03:53:44;3.47;;;1.50;;
34200;SDS011;20469;55.638;37.670;2022-11-15T03:56:12;2.80;;;1.23;;
34200;SDS011;20469;55.638;37.670;2022-11-15T03:58:40;4.65;;;1.10;;
34200;SDS011;20469;55.638;37.670;2022-11-15T04:01:08;4.05;;;1.48;;
34200;SDS011;20469;55.638;37.670;2022-11-15T04:03:37;6.35;;;1.30;;
34200;SDS011;20469;55.638;37.670;2022-11-15T04:06:05;4.18;;;1.50;;
34200;SDS011;20469;55.638;37.670;2022-11-15T04:08:33;5.65;;;1.42;;
34200;SDS011;20469;55.638;37.670;2022-11-15T04:11:00;3.58;;;1.55;;
34200;SDS011;20469;55.638;37.670;2022-11-15T04:13:28;7.45;;;1.60;;
34200;SDS011;20469;55.638;37.670;2022-11-15T04:15:57;4.40;;;1.40;;
34200;SDS011;20469;55.638;37.670;2022-11-15T04:18:25;8.48;;;1.60;;
34200;SDS011;20469;55.638;37.670;2022-11-15T04:20:53;3.90;;;1.20;;
34200;SDS011;20469;55.638;37.670;2022-11-15T04:26:21;2.40;;;1.20;;
34200;SDS011;20469;55.638;37.670;2022-11-15T04:28:49;5.90;;;1.40;;
34200;SDS011;20469;55.638;37.670;2022-11-15T04:31:37;3.38;;;1.15;;
34200;SDS011;20469;55.638;37.670;2022-11-15T04:34:04;4.72;;;1.23;;
34200;SDS011;20469;55.638;37.670;2022-11-15T04:36:32;6.70;;;1.75;;
34200;SDS011;20469;55.638;37.670;2022-11-15T04:41:43;3.92;;;1.50;;
34200;SDS011;20469;55.638;37.670;2022-11-15T04:44:10;4.25;;;1.35;;
34200;SDS011;20469;55.638;37.670;2022-11-15T04:46:38;4.18;;;1.38;;
34200;SDS011;20469;55.638;37.670;2022-11-15T04:49:06;6.05;;;1.77;;
34200;SDS011;20469;55.638;37.670;2022-11-15T04:51:34;2.78;;;1.23;;
34200;SDS011;20469;55.638;37.670;2022-11-15T04:54:02;5.00;;;1.40;;
34200;SDS011;20469;55.638;37.670;2022-11-15T04:56:30;4.40;;;1.60;;
34200;SDS011;20469;55.638;37.670;2022-11-15T04:58:58;7.25;;;1.77;;
34200;SDS011;20469;55.638;37.670;2022-11-15T05:01:25;3.50;;;1.40;;
34200;SDS011;20469;55.638;37.670;2022-11-15T05:03:53;9.13;;;2.10;;
34200;SDS011;20469;55.638;37.670;2022-11-15T05:09:04;4.15;;;1.80;;
34200;SDS011;20469;55.638;37.670;2022-11-15T05:11:32;5.60;;;1.63;;
34200;SDS011;20469;55.638;37.670;2022-11-15T05:14:00;7.63;;;1.75;;
34200;SDS011;20469;55.638;37.670;2022-11-15T05:16:28;2.67;;;1.30;;
34200;SDS011;20469;55.638;37.670;2022-11-15T05:18:55;2.65;;;1.35;;
34200;SDS011;20469;55.638;37.670;2022-11-15T05:21:23;9.13;;;2.17;;
34200;SDS011;20469;55.638;37.670;2022-11-15T05:23:51;8.93;;;1.48;;
34200;SDS011;20469;55.638;37.670;2022-11-15T05:26:19;6.05;;;1.73;;
34200;SDS011;20469;55.638;37.670;2022-11-15T05:28:51;7.13;;;1.67;;
34200;SDS011;20469;55.638;37.670;2022-11-15T05:31:20;5.28;;;1.50;;
34200;SDS011;20469;55.638;37.670;2022-11-15T05:33:49;5.90;;;1.60;;
34200;SDS011;20469;55.638;37.670;2022-11-15T05:36:24;7.43;;;1.80;;
34200;SDS011;20469;55.638;37.670;2022-11-15T05:38:58;6.60;;;1.70;;
34200;SDS011;20469;55.638;37.670;2022-11-15T05:41:27;3.65;;;1.52;;
34200;SDS011;20469;55.638;37.670;2022-11-15T05:44:00;7.80;;;1.98;;
34200;SDS011;20469;55.638;37.670;2022-11-15T05:46:29;5.55;;;2.30;;
34200;SDS011;20469;55.638;37.670;2022-11-15T05:48:57;8.85;;;1.70;;
34200;SDS011;20469;55.638;37.670;2022-11-15T05:51:25;6.78;;;1.75;;
34200;SDS011;20469;55.638;37.670;2022-11-15T05:53:56;7.25;;;2.00;;
34200;SDS011;20469;55.638;37.670;2022-11-15T05:56:25;3.25;;;1.45;;
34200;SDS011;20469;55.638;37.670;2022-11-15T05:58:53;6.97;;;1.60;;
34200;SDS011;20469;55.638;37.670;2022-11-15T06:01:25;4.75;;;1.77;;
34200;SDS011;20469;55.638;37.670;2022-11-15T06:03:54;5.00;;;1.65;;
34200;SDS011;20469;55.638;37.670;2022-11-15T06:06:23;5.47;;;1.60;;
34200;SDS011;20469;55.638;37.670;2022-11-15T06:08:51;5.45;;;1.70;;
34200;SDS011;20469;55.638;37.670;2022-11-15T06:11:19;5.70;;;1.60;;
34200;SDS011;20469;55.638;37.670;2022-11-15T06:13:47;5.88;;;1.88;;
34200;SDS011;20469;55.638;37.670;2022-11-15T06:16:16;6.13;;;1.90;;
34200;SDS011;20469;55.638;37.670;2022-11-15T06:18:46;10.50;;;2.00;;
34200;SDS011;20469;55.638;37.670;2022-11-15T06:21:14;3.67;;;1.50;;
34200;SDS011;20469;55.638;37.670;2022-11-15T06:23:44;4.60;;;1.50;;
34200;SDS011;20469;55.638;37.670;2022-11-15T06:26:14;8.05;;;1.85;;
34200;SDS011;20469;55.638;37.670;2022-11-15T06:28:42;7.25;;;2.13;;
34200;SDS011;20469;55.638;37.670;2022-11-15T06:31:10;5.60;;;2.05;;
34200;SDS011;20469;55.638;37.670;2022-11-15T06:33:41;9.00;;;1.90;;
34200;SDS011;20469;55.638;37.670;2022-11-15T06:36:10;8.90;;;2.05;;
34200;SDS011;20469;55.638;37.670;2022-11-15T06:38:44;8.27;;;1.92;;
34200;SDS011;20469;55.638;37.670;2022-11-15T06:41:12;10.18;;;3.53;;
34200;SDS011;20469;55.638;37.670;2022-11-15T06:43:42;10.13;;;1.92;;
34200;SDS011;20469;55.638;37.670;2022-11-15T06:46:13;8.93;;;2.10;;
34200;SDS011;20469;55.638;37.670;2022-11-15T06:48:41;6.55;;;1.90;;
34200;SDS011;20469;55.638;37.670;2022-11-15T06:51:08;8.90;;;2.05;;
34200;SDS011;20469;55.638;37.670;2022-11-15T06:53:36;12.05;;;2.33;;
34200;SDS011;20469;55.638;37.670;2022-11-15T06:56:05;11.45;;;2.30;;
34200;SDS011;20469;55.638;37.670;2022-11-15T06:58:33;5.88;;;1.80;;
34200;SDS011;20469;55.638;37.670;2022-11-15T07:01:10;4.00;;;1.73;;
34200;SDS011;20469;55.638;37.670;2022-11-15T07:03:39;9.23;;;3.30;;
34200;SDS011;20469;55.638;37.670;2022-11-15T07:06:09;6.60;;;2.22;;
34200;SDS011;20469;55.638;37.670;2022-11-15T07:08:37;6.63;;;1.80;;
34200;SDS011;20469;55.638;37.670;2022-11-15T07:11:05;7.95;;;2.10;;
34200;SDS011;20469;55.638;37.670;2022-11-15T07:13:34;4.57;;;2.17;;
34200;SDS011;20469;55.638;37.670;2022-11-15T07:16:04;5.10;;;1.65;;
34200;SDS011;20469;55.638;37.670;2022-11-15T07:18:34;9.98;;;3.40;;
34200;SDS011;20469;55.638;37.670;2022-11-15T07:21:03;4.97;;;1.63;;
34200;SDS011;20469;55.638;37.670;2022-11-15T07:23:32;4.40;;;2.00;;
34200;SDS011;20469;55.638;37.670;2022-11-15T07:26:00;3.90;;;1.90;;
34200;SDS011;20469;55.638;37.670;2022-11-15T07:28:28;7.38;;;2.35;;
34200;SDS011;20469;55.638;37.670;2022-11-15T07:30:56;7.90;;;2.10;;
34200;SDS011;20469;55.638;37.670;2022-11-15T07:33:24;9.40;;;2.05;;
34200;SDS011;20469;55.638;37.670;2022-11-15T07:35:52;5.13;;;1.70;;
34200;SDS011;20469;55.638;37.670;2022-11-15T07:38:19;4.93;;;1.70;;
34200;SDS011;20469;55.638;37.670;2022-11-15T07:40:55;7.22;;;1.58;;
34200;SDS011;20469;55.638;37.670;2022-11-15T07:43:24;5.78;;;1.80;;
34200;SDS011;20469;55.638;37.670;2022-11-15T07:45:54;3.22;;;1.70;;
34200;SDS011;20469;55.638;37.670;2022-11-15T07:48:25;5.85;;;2.10;;
34200;SDS011;20469;55.638;37.670;2022-11-15T07:51:11;6.07;;;1.70;;
34200;SDS011;20469;55.638;37.670;2022-11-15T07:53:43;7.47;;;2.05;;
34200;SDS011;20469;55.638;37.670;2022-11-15T07:56:11;7.95;;;2.22;;
34200;SDS011;20469;55.638;37.670;2022-11-15T07:58:39;9.30;;;1.83;;
34200;SDS011;20469;55.638;37.670;2022-11-15T08:01:07;9.88;;;2.10;;
34200;SDS011;20469;55.638;37.670;2022-11-15T08:03:36;8.13;;;2.35;;
34200;SDS011;20469;55.638;37.670;2022-11-15T08:06:04;5.47;;;1.88;;
34200;SDS011;20469;55.638;37.670;2022-11-15T08:08:32;6.05;;;1.70;;
34200;SDS011;20469;55.638;37.670;2022-11-15T08:11:00;8.25;;;3.58;;
34200;SDS011;20469;55.638;37.670;2022-11-15T08:13:28;5.82;;;1.90;;
34200;SDS011;20469;55.638;37.670;2022-11-15T08:15:58;5.90;;;2.13;;
34200;SDS011;20469;55.638;37.670;2022-11-15T08:18:26;5.07;;;2.30;;
34200;SDS011;20469;55.638;37.670;2022-11-15T08:20:57;5.82;;;2.05;;
34200;SDS011;20469;55.638;37.670;2022-11-15T08:23:27;8.25;;;2.05;;
34200;SDS011;20469;55.638;37.670;2022-11-15T08:25:58;6.20;;;2.00;;
34200;SDS011;20469;55.638;37.670;2022-11-15T08:28:27;7.78;;;2.28;;
34200;SDS011;20469;55.638;37.670;2022-11-15T08:30:55;5.45;;;2.03;;
34200;SDS011;20469;55.638;37.670;2022-11-15T08:33:23;7.70;;;2.05;;
34200;SDS011;20469;55.638;37.670;2022-11-15T08:35:51;11.43;;;2.40;;
34200;SDS011;20469;55.638;37.670;2022-11-15T08:38:19;9.77;;;2.15;;
34200;SDS011;20469;55.638;37.670;2022-11-15T08:40:46;6.10;;;1.70;;
34200;SDS011;20469;55.638;37.670;2022-11-15T08:43:14;9.88;;;2.78;;
34200;SDS011;20469;55.638;37.670;2022-11-15T08:45:42;8.05;;;2.92;;
34200;SDS011;20469;55.638;37.670;2022-11-15T08:48:10;6.63;;;2.78;;
34200;SDS011;20469;55.638;37.670;2022-11-15T08:50:38;6.68;;;2.05;;
34200;SDS011;20469;55.638;37.670;2022-11-15T08:53:06;6.10;;;1.67;;
34200;SDS011;20469;55.638;37.670;2022-11-15T08:55:36;5.03;;;1.80;;
34200;SDS011;20469;55.638;37.670;2022-11-15T08:58:05;3.08;;;2.00;;
34200;SDS011;20469;55.638;37.670;2022-11-15T09:00:33;4.70;;;2.00;;
34200;SDS011;20469;55.638;37.670;2022-11-15T09:03:03;10.13;;;2.33;;
34200;SDS011;20469;55.638;37.670;2022-11-15T09:05:32;5.53;;;2.20;;
34200;SDS011;20469;55.638;37.670;2022-11-15T09:08:00;6.80;;;1.92;;
34200;SDS011;20469;55.638;37.670;2022-11-15T09:10:47;17.98;;;8.32;;
34200;SDS011;20469;55.638;37.670;2022-11-15T09:13:15;10.15;;;2.55;;
34200;SDS011;20469;55.638;37.670;2022-11-15T09:15:43;6.60;;;2.10;;
34200;SDS011;20469;55.638;37.670;2022-11-15T09:18:11;3.72;;;1.63;;
34200;SDS011;20469;55.638;37.670;2022-11-15T09:20:39;6.47;;;1.98;;
34200;SDS011;20469;55.638;37.670;2022-11-15T09:23:07;4.50;;;1.75;;
34200;SDS011;20469;55.638;37.670;2022-11-15T09:25:35;7.63;;;2.20;;
34200;SDS011;20469;55.638;37.670;2022-11-15T09:28:05;6.70;;;2.03;;
34200;SDS011;20469;55.638;37.670;2022-11-15T09:30:34;5.40;;;2.00;;
34200;SDS011;20469;55.638;37.670;2022-11-15T09:33:07;5.82;;;2.00;;
34200;SDS011;20469;55.638;37.670;2022-11-15T09:35:35;7.20;;;1.90;;
34200;SDS011;20469;55.638;37.670;2022-11-15T09:38:03;10.20;;;2.20;;
34200;SDS011;20469;55.638;37.670;2022-11-15T09:40:31;5.55;;;1.55;;
34200;SDS011;20469;55.638;37.670;2022-11-15T09:43:05;5.93;;;2.33;;
34200;SDS011;20469;55.638;37.670;2022-11-15T09:45:56;9.07;;;2.40;;
34200;SDS011;20469;55.638;37.670;2022-11-15T09:48:36;9.30;;;2.25;;
34200;SDS011;20469;55.638;37.670;2022-11-15T09:51:30;7.47;;;2.40;;
34200;SDS011;20469;55.638;37.670;2022-11-15T09:57:10;9.70;;;2.28;;
34200;SDS011;20469;55.638;37.670;2022-11-15T09:59:46;7.00;;;1.95;;
34200;SDS011;20469;55.638;37.670;2022-11-15T10:03:09;5.28;;;1.80;;
34200;SDS011;20469;55.638;37.670;2022-11-15T10:05:42;4.65;;;1.80;;
34200;SDS011;20469;55.638;37.670;2022-11-15T10:11:11;6.72;;;1.90;;
34200;SDS011;20469;55.638;37.670;2022-11-15T10:14:09;10.00;;;1.88;;
34200;SDS011;20469;55.638;37.670;2022-11-15T10:16:51;11.63;;;2.13;;
34200;SDS011;20469;55.638;37.670;2022-11-15T10:19:39;8.25;;;3.05;;
34200;SDS011;20469;55.638;37.670;2022-11-15T10:22:39;7.75;;;2.10;;
34200;SDS011;20469;55.638;37.670;2022-11-15T10:25:14;6.43;;;1.90;;
34200;SDS011;20469;55.638;37.670;2022-11-15T10:27:50;8.13;;;2.10;;
34200;SDS011;20469;55.638;37.670;2022-11-15T10:30:37;8.98;;;2.20;;
34200;SDS011;20469;55.638;37.670;2022-11-15T10:38:53;7.55;;;2.30;;
34200;SDS011;20469;55.638;37.670;2022-11-15T10:41:31;7.47;;;2.22;;
34200;SDS011;20469;55.638;37.670;2022-11-15T10:44:11;7.10;;;2.75;;
34200;SDS011;20469;55.638;37.670;2022-11-15T10:47:03;4.07;;;1.92;;
34200;SDS011;20469;55.638;37.670;2022-11-15T10:49:33;8.20;;;2.20;;
34200;SDS011;20469;55.638;37.670;2022-11-15T10:52:12;9.55;;;2.28;;
34200;SDS011;20469;55.638;37.670;2022-11-15T10:54:48;5.00;;;2.05;;
34200;SDS011;20469;55.638;37.670;2022-11-15T10:57:21;5.55;;;2.00;;
34200;SDS011;20469;55.638;37.670;2022-11-15T10:59:53;6.07;;;2.17;;
34200;SDS011;20469;55.638;37.670;2022-11-15T11:02:28;4.30;;;1.92;;
34200;SDS011;20469;55.638;37.670;2022-11-15T11:04:59;5.97;;;1.95;;
34200;SDS011;20469;55.638;37.670;2022-11-15T11:07:30;9.90;;;2.08;;
34200;SDS011;20469;55.638;37.670;2022-11-15T11:10:01;12.88;;;2.80;;
34200;SDS011;20469;55.638;37.670;2022-11-15T11:12:52;14.32;;;2.50;;
34200;SDS011;20469;55.638;37.670;2022-11-15T11:15:20;14.00;;;2.80;;
34200;SDS011;20469;55.638;37.670;2022-11-15T11:17:57;10.05;;;2.80;;
34200;SDS011;20469;55.638;37.670;2022-11-15T11:20:44;13.50;;;2.78;;
34200;SDS011;20469;55.638;37.670;2022-11-15T11:23:41;5.95;;;2.40;;
34200;SDS011;20469;55.638;37.670;2022-11-15T11:26:28;9.52;;;3.00;;
34200;SDS011;20469;55.638;37.670;2022-11-15T11:32:20;7.13;;;2.58;;
34200;SDS011;20469;55.638;37.670;2022-11-15T11:35:11;7.60;;;2.80;;
34200;SDS011;20469;55.638;37.670;2022-11-15T11:37:46;6.63;;;2.90;;
34200;SDS011;20469;55.638;37.670;2022-11-15T11:40:29;7.55;;;2.90;;
34200;SDS011;20469;55.638;37.670;2022-11-15T11:43:09;26.80;;;8.68;;
34200;SDS011;20469;55.638;37.670;2022-11-15T11:48:57;10.25;;;3.10;;
34200;SDS011;20469;55.638;37.670;2022-11-15T11:51:53;13.93;;;3.70;;
34200;SDS011;20469;55.638;37.670;2022-11-15T11:54:32;9.00;;;2.78;;
34200;SDS011;20469;55.638;37.670;2022-11-15T11:57:22;16.25;;;4.00;;
34200;SDS011;20469;55.638;37.670;2022-11-15T12:00:03;7.80;;;3.05;;
34200;SDS011;20469;55.638;37.670;2022-11-15T12:02:42;22.80;;;6.80;;
34200;SDS011;20469;55.638;37.670;2022-11-15T12:05:22;16.00;;;3.70;;
34200;SDS011;20469;55.638;37.670;2022-11-15T12:08:01;8.57;;;3.28;;
34200;SDS011;20469;55.638;37.670;2022-11-15T12:10:50;20.52;;;5.40;;
34200;SDS011;20469;55.638;37.670;2022-11-15T12:13:33;16.58;;;4.35;;
34200;SDS011;20469;55.638;37.670;2022-11-15T12:18:52;14.43;;;5.32;;
34200;SDS011;20469;55.638;37.670;2022-11-15T12:21:25;10.15;;;3.45;;
34200;SDS011;20469;55.638;37.670;2022-11-15T12:24:13;9.30;;;3.38;;
34200;SDS011;20469;55.638;37.670;2022-11-15T12:29:39;13.77;;;3.83;;
34200;SDS011;20469;55.638;37.670;2022-11-15T12:32:35;6.25;;;2.40;;
34200;SDS011;20469;55.638;37.670;2022-11-15T12:35:05;14.43;;;3.45;;
34200;SDS011;20469;55.638;37.670;2022-11-15T12:37:48;8.55;;;3.20;;
34200;SDS011;20469;55.638;37.670;2022-11-15T12:40:22;20.02;;;5.72;;
34200;SDS011;20469;55.638;37.670;2022-11-15T12:42:59;6.30;;;3.10;;
34200;SDS011;20469;55.638;37.670;2022-11-15T12:45:31;11.80;;;3.40;;
34200;SDS011;20469;55.638;37.670;2022-11-15T12:51:06;16.45;;;5.88;;
34200;SDS011;20469;55.638;37.670;2022-11-15T12:53:34;13.07;;;4.70;;
34200;SDS011;20469;55.638;37.670;2022-11-15T12:58:48;10.10;;;3.22;;
34200;SDS011;20469;55.638;37.670;2022-11-15T13:04:22;9.27;;;3.20;;
34200;SDS011;20469;55.638;37.670;2022-11-15T13:06:57;13.68;;;4.20;;
34200;SDS011;20469;55.638;37.670;2022-11-15T13:09:50;11.63;;;3.33;;
34200;SDS011;20469;55.638;37.670;2022-11-15T13:18:32;8.63;;;3.65;;
34200;SDS011;20469;55.638;37.670;2022-11-15T13:21:04;10.98;;;3.85;;
34200;SDS011;20469;55.638;37.670;2022-11-15T13:24:00;12.32;;;3.70;;
34200;SDS011;20469;55.638;37.670;2022-11-15T13:26:28;12.05;;;4.15;;
34200;SDS011;20469;55.638;37.670;2022-11-15T13:28:56;12.00;;;3.92;;
34200;SDS011;20469;55.638;37.670;2022-11-15T13:31:27;11.10;;;3.97;;
34200;SDS011;20469;55.638;37.670;2022-11-15T13:34:02;12.35;;;4.05;;
34200;SDS011;20469;55.638;37.670;2022-11-15T13:37:12;11.40;;;4.00;;
34200;SDS011;20469;55.638;37.670;2022-11-15T13:39:57;9.07;;;3.75;;
34200;SDS011;20469;55.638;37.670;2022-11-15T13:42:44;7.10;;;3.58;;
34200;SDS011;20469;55.638;37.670;2022-11-15T13:45:13;9.57;;;3.70;;
34200;SDS011;20469;55.638;37.670;2022-11-15T13:47:43;13.30;;;3.55;;
34200;SDS011;20469;55.638;37.670;2022-11-15T13:50:11;11.63;;;3.60;;
34200;SDS011;20469;55.638;37.670;2022-11-15T13:52:40;10.38;;;3.10;;
34200;SDS011;20469;55.638;37.670;2022-11-15T13:55:14;10.38;;;2.78;;
34200;SDS011;20469;55.638;37.670;2022-11-15T13:57:46;9.20;;;3.40;;
34200;SDS011;20469;55.638;37.670;2022-11-15T14:00:26;9.43;;;3.28;;
34200;SDS011;20469;55.638;37.670;2022-11-15T14:03:10;11.45;;;3.13;;
34200;SDS011;20469;55.638;37.670;2022-11-15T14:08:39;8.40;;;2.90;;
34200;SDS011;20469;55.638;37.670;2022-11-15T14:11:11;7.47;;;3.25;;
34200;SDS011;20469;55.638;37.670;2022-11-15T14:16:32;6.93;;;2.93;;
34200;SDS011;20469;55.638;37.670;2022-11-15T14:19:04;6.95;;;3.22;;
34200;SDS011;20469;55.638;37.670;2022-11-15T14:21:35;9.55;;;3.70;;
34200;SDS011;20469;55.638;37.670;2022-11-15T14:26:52;9.90;;;3.40;;
34200;SDS011;20469;55.638;37.670;2022-11-15T14:29:26;11.40;;;3.65;;
34200;SDS011;20469;55.638;37.670;2022-11-15T14:32:11;10.48;;;3.80;;
34200;SDS011;20469;55.638;37.670;2022-11-15T14:34:43;8.45;;;3.75;;
34200;SDS011;20469;55.638;37.670;2022-11-15T14:37:19;8.55;;;3.63;;
34200;SDS011;20469;55.638;37.670;2022-11-15T14:39:54;7.80;;;3.28;;
34200;SDS011;20469;55.638;37.670;2022-11-15T14:42:24;11.55;;;3.60;;
34200;SDS011;20469;55.638;37.670;2022-11-15T14:44:54;9.40;;;3.72;;
34200;SDS011;20469;55.638;37.670;2022-11-15T14:47:24;10.30;;;3.70;;
34200;SDS011;20469;55.638;37.670;2022-11-15T14:49:55;8.93;;;4.20;;
34200;SDS011;20469;55.638;37.670;2022-11-15T14:52:25;13.02;;;5.20;;
34200;SDS011;20469;55.638;37.670;2022-11-15T14:55:00;11.18;;;5.68;;
34200;SDS011;20469;55.638;37.670;2022-11-15T14:57:31;13.05;;;5.65;;
34200;SDS011;20469;55.638;37.670;2022-11-15T15:00:01;16.48;;;6.72;;
34200;SDS011;20469;55.638;37.670;2022-11-15T15:02:31;14.32;;;6.25;;
34200;SDS011;20469;55.638;37.670;2022-11-15T15:05:00;11.68;;;6.10;;
34200;SDS011;20469;55.638;37.670;2022-11-15T15:07:38;11.02;;;4.88;;
34200;SDS011;20469;55.638;37.670;2022-11-15T15:10:07;12.68;;;4.90;;
34200;SDS011;20469;55.638;37.670;2022-11-15T15:12:57;9.82;;;4.68;;
34200;SDS011;20469;55.638;37.670;2022-11-15T15:15:31;13.10;;;4.80;;
34200;SDS011;20469;55.638;37.670;2022-11-15T15:18:02;13.35;;;5.38;;
34200;SDS011;20469;55.638;37.670;2022-11-15T15:20:32;13.85;;;5.32;;
34200;SDS011;20469;55.638;37.670;2022-11-15T15:23:02;10.13;;;4.32;;
34200;SDS011;20469;55.638;37.670;2022-11-15T15:25:33;11.20;;;4.47;;
34200;SDS011;20469;55.638;37.670;2022-11-15T15:28:03;9.63;;;4.15;;
34200;SDS011;20469;55.638;37.670;2022-11-15T15:30:32;10.35;;;3.85;;
34200;SDS011;20469;55.638;37.670;2022-11-15T15:33:00;9.93;;;4.25;;
34200;SDS011;20469;55.638;37.670;2022-11-15T15:35:29;7.30;;;3.70;;
34200;SDS011;20469;55.638;37.670;2022-11-15T15:37:59;6.28;;;3.85;;
34200;SDS011;20469;55.638;37.670;2022-11-15T15:40:28;8.45;;;3.60;;
34200;SDS011;20469;55.638;37.670;2022-11-15T15:42:57;9.95;;;4.00;;
34200;SDS011;20469;55.638;37.670;2022-11-15T15:45:25;9.05;;;3.58;;
34200;SDS011;20469;55.638;37.670;2022-11-15T15:47:54;7.68;;;4.00;;
34200;SDS011;20469;55.638;37.670;2022-11-15T15:50:23;10.02;;;4.00;;
34200;SDS011;20469;55.638;37.670;2022-11-15T15:52:54;12.57;;;3.95;;
34200;SDS011;20469;55.638;37.670;2022-11-15T15:55:23;8.25;;;4.20;;
34200;SDS011;20469;55.638;37.670;2022-11-15T15:57:51;9.60;;;4.18;;
34200;SDS011;20469;55.638;37.670;2022-11-15T16:00:19;8.02;;;3.90;;
34200;SDS011;20469;55.638;37.670;2022-11-15T16:02:47;7.75;;;3.72;;
34200;SDS011;20469;55.638;37.670;2022-11-15T16:05:15;8.18;;;3.70;;
34200;SDS011;20469;55.638;37.670;2022-11-15T16:07:44;7.60;;;3.90;;
34200;SDS011;20469;55.638;37.670;2022-11-15T16:10:17;8.45;;;4.40;;
34200;SDS011;20469;55.638;37.670;2022-11-15T16:12:51;7.15;;;4.00;;
34200;SDS011;20469;55.638;37.670;2022-11-15T16:15:24;8.40;;;3.83;;